Time;durP1;ratioP1;P1;durP2;ratioP2;P2;SDS_P1;SDS_P2;PMS_P1;PMS_P2;Temp;Humidity;BMP_temperature;BMP_pressure;BME280_temperature;BME280_humidity;BME280_pressure;Samples;Min_cycle;Max_cycle;Signal;HPM_P1;HPM_P2
2021/08/11 00:00:23;;;;;;;4.25;2.50;;;;;;;18.17;66.05;100799.88;4899742;28;128776;-62
2021/08/11 00:02:49;;;;;;;4.55;2.70;;;;;;;18.17;65.93;100796.34;4899873;28;128078;-63
2021/08/11 00:05:15;;;;;;;3.63;2.88;;;;;;;18.15;65.85;100802.09;4882171;28;121827;-62
2021/08/11 00:07:42;;;;;;;5.10;2.88;;;;;;;18.13;65.83;100796.16;4898281;28;117218;-67
2021/08/11 00:10:09;;;;;;;3.97;2.55;;;;;;;18.09;66.03;100803.34;4900200;28;117164;-63
2021/08/11 00:12:35;;;;;;;3.42;2.65;;;;;;;18.06;66.32;100804.75;4900283;28;98991;-63
2021/08/11 00:15:01;;;;;;;4.00;2.60;;;;;;;18.03;66.43;100812.75;4900581;28;98012;-68
2021/08/11 00:17:27;;;;;;;4.45;2.90;;;;;;;18.02;66.37;100805.69;4899691;28;117532;-62
2021/08/11 00:19:53;;;;;;;3.83;2.55;;;;;;;18.00;66.73;100807.91;4899725;28;127385;-63
2021/08/11 00:22:19;;;;;;;4.55;2.70;;;;;;;17.99;66.72;100818.00;4897350;28;127498;-67
2021/08/11 00:24:45;;;;;;;3.88;2.80;;;;;;;18.01;66.81;100828.63;4898814;28;98086;-63
2021/08/11 00:27:11;;;;;;;3.67;2.95;;;;;;;18.00;66.57;100824.25;4900099;28;128611;-68
2021/08/11 00:29:37;;;;;;;3.67;2.60;;;;;;;17.99;66.79;100828.91;4900276;28;111783;-67
2021/08/11 00:32:03;;;;;;;2.85;2.20;;;;;;;17.99;66.98;100831.63;4899888;28;98840;-67
2021/08/11 00:34:30;;;;;;;4.45;2.88;;;;;;;18.00;66.93;100830.56;4899639;28;108546;-67
2021/08/11 00:36:56;;;;;;;4.93;3.00;;;;;;;17.98;67.00;100835.50;4899436;28;126786;-67
2021/08/11 00:39:22;;;;;;;3.88;2.75;;;;;;;17.97;67.17;100831.16;4899027;28;127749;-67
2021/08/11 00:41:48;;;;;;;4.53;2.80;;;;;;;17.98;66.88;100821.84;4899512;28;126070;-67
2021/08/11 00:44:17;;;;;;;4.18;2.95;;;;;;;18.02;67.04;100833.75;4900475;28;97783;-63
2021/08/11 00:46:45;;;;;;;4.28;2.80;;;;;;;18.05;67.09;100832.34;4900174;28;98298;-63
2021/08/11 00:49:13;;;;;;;3.85;2.85;;;;;;;18.08;67.09;100832.53;4900361;28;98974;-63
2021/08/11 00:51:40;;;;;;;5.20;3.00;;;;;;;18.10;67.03;100840.41;4901439;28;116024;-63
2021/08/11 00:54:06;;;;;;;3.78;2.70;;;;;;;18.11;67.06;100842.00;4902220;28;98004;-67
2021/08/11 00:56:34;;;;;;;4.53;2.58;;;;;;;18.11;66.97;100840.06;4869366;28;98527;-67
2021/08/11 00:59:02;;;;;;;3.28;2.55;;;;;;;18.13;66.91;100842.53;4885548;28;98079;-63
2021/08/11 01:01:28;;;;;;;4.00;2.70;;;;;;;18.11;66.86;100847.47;4901124;28;97848;-67
2021/08/11 01:03:54;;;;;;;4.18;2.83;;;;;;;18.09;66.91;100847.78;4901420;28;110445;-63
2021/08/11 01:06:21;;;;;;;4.50;3.03;;;;;;;18.07;67.00;100844.53;4901004;28;125996;-67
2021/08/11 01:08:47;;;;;;;3.85;2.90;;;;;;;18.07;67.21;100849.19;4885756;28;98212;-63
2021/08/11 01:11:13;;;;;;;4.22;2.95;;;;;;;18.04;67.24;100847.91;4885340;28;103703;-67
2021/08/11 01:13:40;;;;;;;4.22;2.97;;;;;;;18.01;67.19;100856.69;4902410;28;122638;-63
2021/08/11 01:16:06;;;;;;;3.30;2.50;;;;;;;17.99;67.21;100855.38;4868930;28;110903;-67
2021/08/11 01:18:32;;;;;;;4.20;2.88;;;;;;;17.97;67.38;100855.69;4884296;28;128323;-67
2021/08/11 01:21:22;;;;;;;4.45;2.83;;;;;;;17.95;67.27;100862.56;4868126;28;126870;-67
2021/08/11 01:24:00;;;;;;;3.03;2.40;;;;;;;17.92;67.30;100869.47;4882684;28;98124;-67
2021/08/11 01:27:06;;;;;;;5.60;2.83;;;;;;;17.88;67.10;100863.81;4884343;28;98903;-67
2021/08/11 01:29:48;;;;;;;3.05;2.63;;;;;;;17.86;67.28;100862.50;4898108;28;98598;-63
2021/08/11 01:32:40;;;;;;;4.68;3.08;;;;;;;17.85;67.35;100866.34;4901571;28;98383;-67
2021/08/11 01:35:09;;;;;;;5.78;3.30;;;;;;;17.81;67.70;100862.63;4889156;28;97887;-67
2021/08/11 01:37:35;;;;;;;5.00;2.80;;;;;;;17.79;67.98;100871.09;4884211;28;119193;-67
2021/08/11 01:40:01;;;;;;;3.95;3.08;;;;;;;17.77;67.96;100869.78;4885049;28;99512;-67
2021/08/11 01:42:39;;;;;;;5.10;2.75;;;;;;;17.74;68.01;100871.16;4884151;28;126774;-67
2021/08/11 01:45:30;;;;;;;6.22;3.53;;;;;;;17.72;68.29;100873.38;4901330;28;97915;-67
2021/08/11 01:48:15;;;;;;;3.92;3.17;;;;;;;17.66;67.96;100869.97;4901575;28;97938;-62
2021/08/11 01:50:45;;;;;;;4.10;2.97;;;;;;;17.64;68.43;100874.09;4900635;28;117950;-62
2021/08/11 01:53:15;;;;;;;5.63;3.20;;;;;;;17.63;68.47;100880.66;4869168;28;98302;-67
2021/08/11 01:55:41;;;;;;;5.22;2.90;;;;;;;17.62;68.64;100879.06;4900377;28;113781;-62
2021/08/11 01:58:07;;;;;;;5.72;3.33;;;;;;;17.62;68.65;100881.78;4901752;28;127421;-67
2021/08/11 02:00:34;;;;;;;5.63;3.13;;;;;;;17.60;68.79;100878.53;4900359;28;128253;-67
2021/08/11 02:03:00;;;;;;;3.40;2.88;;;;;;;17.56;68.70;100874.81;4902135;28;126306;-62
2021/08/11 02:05:28;;;;;;;4.75;3.20;;;;;;;17.54;69.27;100875.13;4899754;28;123059;-62
2021/08/11 02:07:54;;;;;;;4.53;3.38;;;;;;;17.52;68.89;100880.06;4884147;28;97957;-67
2021/08/11 02:10:21;;;;;;;4.13;3.05;;;;;;;17.49;69.25;100872.53;4899413;28;127937;-66
2021/08/11 02:12:47;;;;;;;4.78;3.50;;;;;;;17.47;69.14;100871.19;4884621;28;97831;-62
2021/08/11 02:15:13;;;;;;;5.70;3.55;;;;;;;17.47;69.09;100872.00;4901964;28;115249;-67
2021/08/11 02:17:40;;;;;;;4.10;3.20;;;;;;;17.45;69.52;100871.50;4901352;28;118478;-68
2021/08/11 02:20:09;;;;;;;5.45;3.50;;;;;;;17.44;69.52;100878.06;4916706;28;101264;-62
2021/08/11 02:22:36;;;;;;;6.38;3.67;;;;;;;17.41;69.71;100878.69;4901246;28;111414;-67
2021/08/11 02:25:07;;;;;;;5.47;3.70;;;;;;;17.37;69.15;100878.47;4901708;28;109646;-63
2021/08/11 02:27:39;;;;;;;5.70;3.63;;;;;;;17.35;69.72;100879.88;4901695;28;115891;-63
2021/08/11 02:30:11;;;;;;;5.68;3.65;;;;;;;17.30;69.47;100885.44;4884553;28;118327;-63
2021/08/11 02:32:51;;;;;;;;;;;;;;;17.28;68.91;100887.63;4901557;28;97939;-67
2021/08/11 02:35:31;;;;;;;4.55;3.50;;;;;;;17.24;69.45;100889.34;4902530;28;98064;-67
2021/08/11 02:38:06;;;;;;;5.78;3.65;;;;;;;17.21;69.76;100890.75;4901300;28;116661;-67
2021/08/11 02:40:37;;;;;;;6.20;3.95;;;;;;;17.21;69.77;100887.22;4902079;28;97863;-67
2021/08/11 02:43:16;;;;;;;5.55;4.40;;;;;;;17.20;69.94;100893.78;4900520;28;97948;-62
2021/08/11 02:45:43;;;;;;;7.75;4.65;;;;;;;17.19;70.32;100890.25;4900146;28;107057;-67
2021/08/11 02:48:12;;;;;;;6.00;4.43;;;;;;;17.13;70.22;100889.56;4883856;28;99155;-62
2021/08/11 02:50:38;;;;;;;6.53;4.40;;;;;;;17.12;70.43;100898.00;4899152;28;128710;-62
2021/08/11 02:53:05;;;;;;;6.35;4.35;;;;;;;17.11;70.30;100897.22;4868042;28;98365;-63
2021/08/11 02:55:31;;;;;;;7.10;4.30;;;;;;;17.10;70.24;100897.53;4900739;28;106910;-68
2021/08/11 02:57:57;;;;;;;7.88;4.18;;;;;;;17.08;70.50;100892.34;4884016;28;98215;-65
2021/08/11 03:00:23;;;;;;;5.13;4.03;;;;;;;17.07;70.63;100896.19;4883145;28;121309;-63
2021/08/11 03:02:49;;;;;;;4.85;3.75;;;;;;;17.06;70.35;100900.03;4866571;28;128264;-67
2021/08/11 03:05:16;;;;;;;5.82;4.18;;;;;;;17.04;70.77;100902.25;4868630;28;98319;-63
2021/08/11 03:07:43;;;;;;;4.68;3.83;;;;;;;17.02;70.67;100906.38;4883484;28;98220;-67
2021/08/11 03:10:10;;;;;;;6.53;4.13;;;;;;;17.00;70.70;100906.66;4883856;28;98937;-67
2021/08/11 03:12:37;;;;;;;7.32;4.75;;;;;;;16.98;70.48;100908.06;4900937;28;113994;-62
2021/08/11 03:15:06;;;;;;;9.48;4.78;;;;;;;16.95;70.78;100914.94;4901270;28;97817;-67
2021/08/11 03:17:32;;;;;;;7.57;4.82;;;;;;;16.90;70.56;100915.03;4899278;28;97944;-63
2021/08/11 03:19:58;;;;;;;6.57;4.70;;;;;;;16.86;70.87;100912.09;4898636;28;128337;-66
2021/08/11 03:22:24;;;;;;;5.18;4.15;;;;;;;16.85;70.71;100913.19;4883568;28;98687;-68
2021/08/11 03:24:53;;;;;;;6.78;4.80;;;;;;;16.82;70.86;100916.53;4900874;28;122785;-62
2021/08/11 03:27:19;;;;;;;6.40;4.70;;;;;;;16.77;70.76;100911.16;4901633;28;98938;-62
2021/08/11 03:29:45;;;;;;;5.63;4.00;;;;;;;16.73;70.81;100909.28;4901008;28;120640;-67
2021/08/11 03:32:11;;;;;;;5.80;4.13;;;;;;;16.72;70.52;100911.22;4900460;28;128598;-62
2021/08/11 03:34:37;;;;;;;6.05;3.95;;;;;;;16.71;70.91;100912.31;4900755;28;97895;-67
2021/08/11 03:37:05;;;;;;;6.40;4.20;;;;;;;16.68;70.97;100910.19;4901291;28;97977;-62
2021/08/11 03:39:31;;;;;;;6.13;4.57;;;;;;;16.66;71.13;100912.38;4901430;28;98518;-68
2021/08/11 03:41:57;;;;;;;6.63;4.20;;;;;;;16.64;71.07;100909.16;4882826;28;113306;-67
2021/08/11 03:44:23;;;;;;;7.78;5.20;;;;;;;16.62;70.98;100916.81;4901094;28;105095;-62
2021/08/11 03:46:49;;;;;;;7.03;4.60;;;;;;;16.58;71.01;100913.88;4900290;28;127960;-67
2021/08/11 03:49:15;;;;;;;8.13;4.53;;;;;;;16.55;70.96;100914.47;4899993;28;128393;-62
2021/08/11 03:51:41;;;;;;;5.95;4.45;;;;;;;16.53;70.89;100921.31;4900441;28;128342;-63
2021/08/11 03:54:07;;;;;;;6.53;4.55;;;;;;;16.51;70.98;100918.91;4899812;28;98099;-68
2021/08/11 03:56:33;;;;;;;7.68;5.03;;;;;;;16.51;71.05;100920.81;4900292;28;127375;-67
2021/08/11 03:59:00;;;;;;;8.90;4.65;;;;;;;16.50;71.18;100919.19;4898710;28;115164;-62
2021/08/11 04:01:26;;;;;;;5.95;4.28;;;;;;;16.48;70.93;100916.75;4900829;28;97814;-67
2021/08/11 04:03:52;;;;;;;6.82;4.60;;;;;;;16.49;71.16;100920.28;4899946;28;98018;-67
2021/08/11 04:06:18;;;;;;;7.28;4.65;;;;;;;16.48;71.20;100924.13;4898123;28;115234;-62
2021/08/11 04:08:44;;;;;;;6.03;3.80;;;;;;;16.48;71.14;100929.56;4901237;28;98143;-62
2021/08/11 04:11:10;;;;;;;6.75;4.13;;;;;;;16.49;71.17;100928.44;4899500;28;98124;-68
2021/08/11 04:13:36;;;;;;;6.20;3.97;;;;;;;16.48;70.63;100930.38;4899626;28;100360;-62
2021/08/11 04:16:02;;;;;;;5.32;4.03;;;;;;;16.50;70.93;100940.94;4899550;28;129023;-67
2021/08/11 04:18:28;;;;;;;6.90;4.03;;;;;;;16.51;70.57;100945.31;4899321;28;128486;-62
2021/08/11 04:20:54;;;;;;;6.15;4.30;;;;;;;16.51;70.80;100937.16;4899198;28;128200;-62
2021/08/11 04:23:20;;;;;;;4.80;4.30;;;;;;;16.52;70.53;100944.19;4897372;28;123536;-67
2021/08/11 04:25:46;;;;;;;6.10;4.07;;;;;;;16.51;70.51;100942.59;4897955;28;113322;-62
2021/08/11 04:28:12;;;;;;;7.20;4.47;;;;;;;16.50;70.43;100947.19;4899709;28;127673;-62
2021/08/11 04:30:40;;;;;;;8.20;4.47;;;;;;;16.50;70.66;100947.19;4899605;28;127041;-67
2021/08/11 04:33:06;;;;;;;5.82;4.00;;;;;;;16.51;70.64;100950.75;4900486;28;97801;-67
2021/08/11 04:35:32;;;;;;;6.72;4.10;;;;;;;16.50;70.77;100954.56;4900262;28;97706;-62
2021/08/11 04:37:58;;;;;;;6.28;4.03;;;;;;;16.49;70.05;100950.22;4898300;28;126003;-62
2021/08/11 04:40:25;;;;;;;5.07;3.70;;;;;;;16.50;70.61;100960.78;4896256;28;127503;-67
2021/08/11 04:42:51;;;;;;;4.85;3.95;;;;;;;16.48;70.45;100954.06;4895906;28;119888;-63
2021/08/11 04:45:17;;;;;;;6.30;4.30;;;;;;;16.49;70.58;100966.53;4894283;28;128232;-67
2021/08/11 04:47:43;;;;;;;4.10;3.47;;;;;;;16.51;70.46;100967.06;4896162;28;127977;-68
2021/08/11 04:50:09;;;;;;;4.88;4.00;;;;;;;16.51;70.40;100959.72;4909084;28;126914;-67
2021/08/11 04:52:35;;;;;;;4.82;3.72;;;;;;;16.54;70.65;100972.69;4897952;28;97898;-62
2021/08/11 04:55:03;;;;;;;4.75;3.65;;;;;;;16.57;70.35;100965.88;4896269;28;113275;-62
2021/08/11 04:57:29;;;;;;;6.13;3.83;;;;;;;16.61;70.33;100975.06;4896286;28;112465;-67
2021/08/11 04:59:55;;;;;;;8.27;4.07;;;;;;;16.65;70.20;100974.19;4896446;28;127519;-63
2021/08/11 05:02:21;;;;;;;6.55;3.75;;;;;;;16.71;70.23;100974.13;4897873;28;123169;-68
2021/08/11 05:04:47;;;;;;;4.88;3.63;;;;;;;16.76;70.19;100971.34;4899579;28;127966;-68
2021/08/11 05:07:13;;;;;;;5.97;4.03;;;;;;;16.82;69.86;100972.84;4899142;28;127943;-67
2021/08/11 05:09:39;;;;;;;7.05;4.10;;;;;;;16.89;70.21;100974.09;4898035;28;127455;-62
2021/08/11 05:12:06;;;;;;;4.95;3.40;;;;;;;16.97;69.82;100969.09;4896906;28;123688;-68
2021/08/11 05:14:34;;;;;;;5.32;3.60;;;;;;;17.04;69.89;100970.31;4899681;28;97859;-69
2021/08/11 05:17:00;;;;;;;5.05;3.75;;;;;;;17.11;69.64;100978.13;4899317;28;98163;-62
2021/08/11 05:19:26;;;;;;;4.38;3.50;;;;;;;17.18;69.15;100975.81;4898674;28;128104;-68
2021/08/11 05:21:52;;;;;;;5.80;3.47;;;;;;;17.27;69.52;100976.72;4899406;28;97742;-67
2021/08/11 05:24:19;;;;;;;4.82;3.08;;;;;;;17.39;69.16;100987.16;4898587;28;126925;-62
2021/08/11 05:26:45;;;;;;;5.22;3.42;;;;;;;17.50;68.98;100983.13;4899475;28;118223;-62
2021/08/11 05:29:18;;;;;;;6.53;3.60;;;;;;;17.62;68.60;100982.63;4899647;28;98391;-63
2021/08/11 05:31:45;;;;;;;5.93;3.25;;;;;;;17.77;68.50;100985.09;4900245;28;98465;-63
2021/08/11 05:34:11;;;;;;;4.90;3.33;;;;;;;17.91;68.11;100988.63;4899435;28;99168;-68
2021/08/11 05:36:37;;;;;;;4.45;3.17;;;;;;;18.06;67.95;100992.94;4900913;28;129280;-63
2021/08/11 05:39:03;;;;;;;5.05;3.05;;;;;;;18.21;67.72;101002.75;4902907;28;98034;-68
2021/08/11 05:41:30;;;;;;;4.78;2.90;;;;;;;18.36;67.04;100999.69;4901740;28;122765;-68
2021/08/11 05:43:56;;;;;;;5.20;3.33;;;;;;;18.51;66.95;101001.28;4900490;28;115982;-67
2021/08/11 05:46:22;;;;;;;4.32;3.08;;;;;;;18.70;66.85;101011.22;4902542;28;127263;-63
2021/08/11 05:48:48;;;;;;;5.38;3.38;;;;;;;18.84;66.14;101012.81;4900163;28;127491;-68
2021/08/11 05:51:14;;;;;;;4.97;3.22;;;;;;;19.00;65.81;101013.25;4901171;28;98026;-68
2021/08/11 05:53:41;;;;;;;5.95;3.03;;;;;;;19.17;65.38;101006.28;4901937;28;126650;-68
2021/08/11 05:56:07;;;;;;;4.80;3.08;;;;;;;19.33;65.11;101012.97;4901576;28;127969;-67
2021/08/11 05:58:33;;;;;;;4.30;3.47;;;;;;;19.47;64.77;101010.97;4883474;28;128170;-67
2021/08/11 06:00:59;;;;;;;4.20;3.33;;;;;;;19.66;64.37;101013.50;4899062;28;123602;-68
2021/08/11 06:03:25;;;;;;;5.43;3.33;;;;;;;19.81;63.93;101025.94;4901279;28;100903;-68
2021/08/11 06:05:51;;;;;;;4.78;3.15;;;;;;;19.95;63.90;101017.63;4902055;28;123002;-68
2021/08/11 06:08:17;;;;;;;3.85;3.35;;;;;;;20.10;63.10;101020.72;4883402;28;125658;-68
2021/08/11 06:10:43;;;;;;;5.63;3.83;;;;;;;20.27;62.34;101028.16;4883540;28;122494;-63
2021/08/11 06:13:09;;;;;;;5.40;3.55;;;;;;;20.43;61.93;101023.03;4902046;28;126754;-68
2021/08/11 06:15:35;;;;;;;4.57;3.50;;;;;;;20.61;61.40;101023.91;4900546;28;128145;-63
2021/08/11 06:18:02;;;;;;;6.22;3.50;;;;;;;20.79;61.19;101027.47;4916707;28;99978;-67
2021/08/11 06:20:28;;;;;;;4.40;3.42;;;;;;;21.01;60.32;101024.53;4868551;28;97957;-63
2021/08/11 06:22:54;;;;;;;5.15;3.30;;;;;;;21.21;59.75;101020.28;4899576;28;115742;-67
2021/08/11 06:25:20;;;;;;;4.90;3.17;;;;;;;21.44;59.13;101020.91;4900214;28;128074;-63
2021/08/11 06:27:46;;;;;;;5.53;3.13;;;;;;;21.77;58.06;101032.13;4900765;28;104746;-63
2021/08/11 06:30:12;;;;;;;3.88;3.42;;;;;;;22.25;57.25;101035.63;4884391;28;97809;-68
2021/08/11 06:32:38;;;;;;;5.03;3.38;;;;;;;22.96;55.96;101035.59;4900846;28;126623;-68
2021/08/11 06:35:05;;;;;;;3.97;2.95;;;;;;;23.63;53.94;101030.03;4902220;28;98476;-67
2021/08/11 06:37:31;;;;;;;3.80;2.95;;;;;;;24.36;52.94;101038.28;4901435;28;98003;-63
2021/08/11 06:39:57;;;;;;;5.25;2.90;;;;;;;25.06;51.00;101037.19;4901790;28;121570;-63
2021/08/11 06:42:23;;;;;;;5.00;2.90;;;;;;;25.74;49.34;101036.25;4901155;28;116521;-68
2021/08/11 06:44:50;;;;;;;3.78;2.60;;;;;;;26.43;48.46;101031.97;4901699;28;127801;-68
2021/08/11 06:47:16;;;;;;;4.22;3.33;;;;;;;27.20;46.09;101042.31;4900688;28;97838;-68
2021/08/11 06:49:42;;;;;;;3.35;2.63;;;;;;;27.89;44.76;101045.09;4901631;28;99859;-63
2021/08/11 06:52:08;;;;;;;4.40;2.90;;;;;;;28.54;43.61;101055.19;4901865;28;128201;-68
2021/08/11 06:54:34;;;;;;;4.38;2.60;;;;;;;29.06;42.51;101048.72;4901604;28;127365;-63
2021/08/11 06:57:00;;;;;;;3.88;2.80;;;;;;;29.62;41.02;101043.34;4901350;28;127395;-63
2021/08/11 06:59:26;;;;;;;4.32;3.40;;;;;;;30.13;40.24;101040.56;4901888;28;97933;-63
2021/08/11 07:01:52;;;;;;;4.32;3.38;;;;;;;30.68;38.71;101034.13;4882000;28;126912;-63
2021/08/11 07:04:18;;;;;;;4.18;3.10;;;;;;;31.14;37.91;101039.09;4899983;28;98750;-63
2021/08/11 07:06:44;;;;;;;3.85;2.97;;;;;;;31.47;36.69;101037.97;4900550;28;127490;-63
2021/08/11 07:09:10;;;;;;;4.10;2.60;;;;;;;31.23;37.47;101036.72;4901201;28;122568;-63
2021/08/11 07:11:36;;;;;;;4.53;2.88;;;;;;;30.91;37.71;101036.63;4882355;28;127823;-63
2021/08/11 07:14:03;;;;;;;5.13;2.88;;;;;;;30.63;37.98;101028.97;4899077;28;127253;-69
2021/08/11 07:16:29;;;;;;;2.85;2.60;;;;;;;30.45;38.54;101029.66;4899686;28;97918;-63
2021/08/11 07:18:55;;;;;;;3.65;2.60;;;;;;;30.36;37.92;101022.88;4883111;28;113552;-68
2021/08/11 07:21:21;;;;;;;3.70;3.10;;;;;;;30.31;38.25;101035.94;4901456;28;98163;-68
2021/08/11 07:23:47;;;;;;;3.95;2.55;;;;;;;30.35;37.65;101032.41;4899281;28;128088;-63
2021/08/11 07:26:13;;;;;;;3.70;2.40;;;;;;;30.45;37.85;101026.88;4899338;28;98090;-68
2021/08/11 07:28:39;;;;;;;4.68;2.85;;;;;;;30.49;37.05;101027.69;4916142;28;98031;-68
2021/08/11 07:31:05;;;;;;;3.95;2.85;;;;;;;30.62;37.26;101027.38;4901018;28;126219;-69
2021/08/11 07:33:31;;;;;;;4.38;2.70;;;;;;;30.72;36.84;101026.59;4900389;28;129081;-68
2021/08/11 07:35:57;;;;;;;4.28;2.58;;;;;;;30.96;36.66;101025.91;4900528;28;126366;-63
2021/08/11 07:38:23;;;;;;;4.85;2.58;;;;;;;31.23;36.48;101031.94;4900529;28;119749;-68
2021/08/11 07:40:49;;;;;;;3.75;2.80;;;;;;;30.94;36.24;101028.31;4900555;28;113502;-64
2021/08/11 07:43:15;;;;;;;3.30;2.60;;;;;;;31.13;36.12;101018.03;4900783;28;112330;-68
2021/08/11 07:45:41;;;;;;;3.10;2.40;;;;;;;30.13;37.84;101021.13;4900303;28;123716;-68
2021/08/11 07:48:07;;;;;;;4.18;2.42;;;;;;;29.81;37.72;101013.34;4900980;28;109993;-63
2021/08/11 07:50:36;;;;;;;2.83;2.53;;;;;;;29.75;38.02;101008.53;4898371;28;128133;-68
2021/08/11 07:53:03;;;;;;;3.53;2.50;;;;;;;29.78;38.23;101016.09;4883020;28;99108;-63
2021/08/11 07:55:29;;;;;;;3.58;2.70;;;;;;;29.23;38.38;101016.78;4900347;28;127903;-68
2021/08/11 07:57:55;;;;;;;5.55;2.45;;;;;;;29.13;38.29;101016.69;4899385;28;118882;-63
2021/08/11 08:00:22;;;;;;;4.43;2.28;;;;;;;28.22;40.25;101025.03;4899945;28;127917;-63
2021/08/11 08:02:49;;;;;;;2.75;2.13;;;;;;;29.30;38.60;101004.97;4899885;28;97861;-63
2021/08/11 08:05:15;;;;;;;3.20;2.17;;;;;;;28.90;38.85;101012.06;4901220;28;97896;-63
2021/08/11 08:07:41;;;;;;;2.20;2.00;;;;;;;30.39;36.46;101010.97;4898864;28;97931;-68
2021/08/11 08:10:09;;;;;;;2.80;2.03;;;;;;;31.44;35.41;101016.47;4900265;28;98003;-63
2021/08/11 08:12:35;;;;;;;2.90;2.08;;;;;;;30.95;36.37;101015.19;4900630;28;98648;-68
2021/08/11 08:15:01;;;;;;;3.30;1.92;;;;;;;31.58;34.90;101018.47;4900440;28;98016;-68
2021/08/11 08:17:27;;;;;;;2.92;1.70;;;;;;;31.18;36.05;101015.63;4900522;28;98001;-68
2021/08/11 08:19:53;;;;;;;2.60;1.98;;;;;;;31.91;34.57;101023.69;4900020;28;127964;-63
2021/08/11 08:22:19;;;;;;;3.60;2.28;;;;;;;33.49;32.27;101020.25;4900390;28;104084;-68
2021/08/11 08:24:45;;;;;;;2.63;2.03;;;;;;;32.39;34.04;101027.94;4899614;28;98297;-67
2021/08/11 08:27:12;;;;;;;2.65;1.98;;;;;;;30.92;35.96;101019.53;4900168;28;124267;-64
2021/08/11 08:29:38;;;;;;;3.55;2.30;;;;;;;29.88;37.10;101018.19;4900320;28;106493;-67
2021/08/11 08:32:04;;;;;;;2.50;2.13;;;;;;;32.70;32.92;101020.69;4898753;28;128030;-63
2021/08/11 08:34:30;;;;;;;4.68;2.22;;;;;;;34.56;30.45;101024.78;4899169;28;116428;-68
2021/08/11 08:36:57;;;;;;;3.30;2.20;;;;;;;35.70;28.81;101027.97;4898591;28;115349;-68
2021/08/11 08:39:23;;;;;;;3.10;2.53;;;;;;;36.97;26.75;101042.75;4899780;28;99116;-63
2021/08/11 08:41:49;;;;;;;3.47;2.00;;;;;;;37.66;26.57;101040.72;4899125;28;128695;-63
2021/08/11 08:44:15;;;;;;;3.22;2.00;;;;;;;38.67;25.04;101038.78;4883025;28;97892;-68
2021/08/11 08:46:45;;;;;;;2.72;1.90;;;;;;;37.40;27.11;101017.25;4899972;28;123166;-64
2021/08/11 08:49:14;;;;;;;3.35;2.40;;;;;;;36.21;27.67;101015.41;4899812;28;128668;-67
2021/08/11 08:51:49;;;;;;;3.67;2.35;;;;;;;38.22;25.91;101012.31;4882958;28;119511;-63
2021/08/11 08:54:23;;;;;;;2.75;2.30;;;;;;;39.66;24.78;101011.50;4898078;28;98327;-64
2021/08/11 08:56:50;;;;;;;3.72;2.05;;;;;;;37.07;27.06;101008.00;4882412;28;98209;-68
2021/08/11 08:59:16;;;;;;;2.92;2.15;;;;;;;36.70;26.88;101003.59;4900127;28;98627;-68
2021/08/11 09:01:42;;;;;;;4.13;2.35;;;;;;;38.67;24.42;101013.44;4899613;28;106488;-68
2021/08/11 09:04:08;;;;;;;2.47;2.10;;;;;;;40.07;23.24;101015.31;4898164;28;97942;-68
2021/08/11 09:06:35;;;;;;;2.95;2.13;;;;;;;38.81;24.38;101006.63;4899840;28;97749;-68
2021/08/11 09:09:08;;;;;;;3.53;2.38;;;;;;;37.30;26.69;101001.44;4897629;28;118341;-68
2021/08/11 09:11:36;;;;;;;3.28;2.30;;;;;;;36.49;26.02;101004.88;4902621;28;98139;-64
2021/08/11 09:14:34;;;;;;;3.28;2.25;;;;;;;36.42;27.15;101011.38;4903574;28;98612;-68
2021/08/11 09:17:00;;;;;;;4.03;2.40;;;;;;;36.59;26.02;101007.44;4894109;28;100727;-64
2021/08/11 09:19:46;;;;;;;3.20;2.20;;;;;;;37.11;25.88;101008.72;4886052;28;126915;-64
2021/08/11 09:22:15;;;;;;;3.60;2.40;;;;;;;34.33;28.50;100989.88;4884938;28;98030;-68
2021/08/11 09:24:42;;;;;;;3.13;2.05;;;;;;;35.02;27.96;101000.97;4903607;28;98698;-64
2021/08/11 09:27:41;;;;;;;3.80;2.10;;;;;;;35.70;27.34;101000.72;4902856;28;98207;-68
2021/08/11 09:30:21;;;;;;;3.28;1.90;;;;;;;36.31;27.17;101010.81;4896099;28;98996;-68
2021/08/11 09:33:00;;;;;;;2.50;2.30;;;;;;;36.84;26.11;101009.69;4903507;28;98220;-64
2021/08/11 09:35:39;;;;;;;3.70;2.13;;;;;;;37.46;26.04;101009.91;4902214;28;98161;-68
2021/08/11 09:38:08;;;;;;;3.22;1.75;;;;;;;38.39;24.69;101010.22;4900602;28;97976;-64
2021/08/11 09:40:36;;;;;;;2.97;1.70;;;;;;;37.68;25.12;101017.78;4932817;28;99147;-68
2021/08/11 09:43:15;;;;;;;4.22;2.10;;;;;;;38.04;23.86;101026.06;4903050;28;98574;-64
2021/08/11 09:45:57;;;;;;;3.40;1.90;;;;;;;39.92;22.18;101013.00;4901025;28;98574;-64
2021/08/11 09:48:40;;;;;;;2.45;1.90;;;;;;;41.24;22.07;101015.69;4902598;28;97809;-68
2021/08/11 09:51:08;;;;;;;2.47;1.50;;;;;;;41.74;20.94;101022.09;4902068;28;119518;-68
2021/08/11 09:53:39;;;;;;;2.45;1.48;;;;;;;42.46;20.17;101019.72;4900873;28;98923;-64
2021/08/11 09:56:10;;;;;;;3.58;1.88;;;;;;;42.84;19.53;101015.50;4885430;28;98358;-65
2021/08/11 09:58:38;;;;;;;3.10;1.90;;;;;;;43.34;19.19;101013.84;4902997;28;97975;-68
2021/08/11 10:01:26;;;;;;;2.42;1.73;;;;;;;44.16;19.16;101005.97;4902926;28;98075;-64
2021/08/11 10:04:03;;;;;;;3.60;2.00;;;;;;;42.85;19.78;101005.75;4902554;28;98446;-65
2021/08/11 10:06:36;;;;;;;2.33;1.77;;;;;;;43.70;18.71;100999.91;4900004;28;98479;-68
2021/08/11 10:09:26;;;;;;;2.70;2.10;;;;;;;44.09;18.83;100995.78;4902509;28;97820;-68
2021/08/11 10:11:58;;;;;;;2.45;2.20;;;;;;;44.21;18.43;100987.47;4902846;28;97755;-68
2021/08/11 10:14:29;;;;;;;2.88;1.88;;;;;;;44.34;18.12;100988.00;4901575;28;115627;-68
2021/08/11 10:16:59;;;;;;;2.38;1.98;;;;;;;44.83;17.79;100998.63;4900219;28;100277;-68
2021/08/11 10:19:29;;;;;;;;;;;;;;;45.38;18.95;100997.09;4902654;28;97701;-65
2021/08/11 10:22:03;;;;;;;2.87;2.00;;;;;;;42.24;19.86;100983.09;4902686;28;98978;-69
2021/08/11 10:24:29;;;;;;;2.22;2.00;;;;;;;42.32;19.28;100990.00;4899710;28;98936;-68
2021/08/11 10:26:56;;;;;;;3.00;2.17;;;;;;;41.74;19.74;100995.81;4902463;28;98485;-68
2021/08/11 10:29:24;;;;;;;2.72;1.73;;;;;;;40.43;20.80;100993.00;4901629;28;110527;-64
2021/08/11 10:31:50;;;;;;;2.65;1.55;;;;;;;38.96;22.52;100990.84;4899752;28;98271;-64
2021/08/11 10:34:17;;;;;;;4.60;1.88;;;;;;;39.31;21.53;100990.97;4900385;28;98413;-64
2021/08/11 10:36:45;;;;;;;1.73;1.60;;;;;;;39.51;21.37;100994.28;4899545;28;110196;-65
2021/08/11 10:39:13;;;;;;;2.88;1.70;;;;;;;40.08;21.25;101000.75;4902073;28;97892;-68
2021/08/11 10:41:39;;;;;;;2.13;1.90;;;;;;;40.48;20.63;101012.19;4901946;28;98353;-65
2021/08/11 10:44:14;;;;;;;3.75;1.95;;;;;;;41.17;19.79;101005.47;4899330;28;128055;-68
2021/08/11 10:46:42;;;;;;;2.53;1.90;;;;;;;41.78;19.62;101005.75;4900702;28;113203;-68
2021/08/11 10:49:10;;;;;;;2.25;1.75;;;;;;;39.92;21.34;100998.13;4868692;28;97926;-64
2021/08/11 10:51:59;;;;;;;2.47;1.83;;;;;;;40.07;21.63;100995.56;4902430;28;98418;-64
2021/08/11 10:54:25;;;;;;;3.17;2.05;;;;;;;40.82;20.21;101016.13;4884777;28;99760;-68
2021/08/11 10:56:55;;;;;;;3.08;2.22;;;;;;;40.08;20.93;100995.09;4899335;28;116733;-68
2021/08/11 10:59:25;;;;;;;4.93;2.40;;;;;;;39.50;21.44;100987.88;4901202;28;97796;-68
2021/08/11 11:01:58;;;;;;;3.10;2.20;;;;;;;37.59;23.28;100998.72;4901687;28;98363;-68
2021/08/11 11:04:46;;;;;;;3.03;1.95;;;;;;;36.66;23.91;100997.28;4883137;28;113047;-64
2021/08/11 11:07:16;;;;;;;3.58;2.15;;;;;;;38.01;22.70;100988.38;4900962;28;99454;-68
2021/08/11 11:09:47;;;;;;;3.60;1.70;;;;;;;37.00;24.07;100982.91;4884895;28;98049;-68
2021/08/11 11:12:19;;;;;;;3.08;1.88;;;;;;;35.78;24.92;100990.97;4895655;28;99582;-68
2021/08/11 11:15:00;;;;;;;2.83;1.88;;;;;;;34.53;25.66;100980.84;4901345;28;99052;-64
2021/08/11 11:17:27;;;;;;;;;;;;;;;33.90;26.66;100975.53;4902327;28;98043;-64
2021/08/11 11:20:07;;;;;;;2.88;2.13;;;;;;;35.31;25.01;100981.75;4901754;28;97655;-64
2021/08/11 11:22:35;;;;;;;2.42;1.80;;;;;;;35.28;24.96;100988.97;4901359;28;98448;-68
2021/08/11 11:25:05;;;;;;;3.40;2.17;;;;;;;35.71;25.19;100976.28;4901798;28;98974;-68
2021/08/11 11:27:44;;;;;;;3.38;2.20;;;;;;;36.44;24.82;100991.31;4900411;28;117378;-68